Raleigh County Memorial Airport
KBKW : now visible

Airfield :











YOU CAN JOIN US ON...

 
LOGIN :

Register | Disclaimer

   EN    FR    IT 

 









Legend :    VFR   Marginal VFR   IFR   Intensive IFR   Very Intensive IFR
Visi :
Ceiling :
>= 8 km
>= 3000ft
5 to 8 km
1000 to 3000 ft
1500m to 5 km
500 to 1000 ft
800 to 1500m
200 to 500 ft
< 800m
< 200 ft
Symbols :   Thunderstorms  Fog  Heavy snow  Heavy precipitations  Wind > 20 kt






- Airport Elevation : 2504 ft
- IATA code : BKW


KBKW - Raleigh County Memorial

CURRENT METAR :
  • 191551Z AUTO 35004KT 10SM CLR 00/M04 A3039 RMK AO2 SLP312 T00001044 $

EXPIRED METARs :
  • 191518Z AUTO 36008KT 10SM SCT013 00/M04 A3037 RMK AO2 T00001039 $
  • 191451Z AUTO 34007KT 10SM BKN012 M01/M03 A3037 RMK AO2 SLP308 T10061028 53018 $
  • 191422Z AUTO 33006KT 10SM BKN012 M01/M03 A3036 RMK AO2 T10061033 $
  • 191351Z AUTO 34005KT 10SM CLR M01/M03 A3036 RMK AO2 SLP301 T10061028 $

TAF KBKW
Valid from the 19 at 15:00 until the 20 at 12:00 UTC


191507Z 1915/2012 34008KT P6SM BKN012 OVC250
FM191700 VRB03KT P6SM BKN250
FM200000 00000KT P6SM SKC
FM201100 00000KT P6SM OVC100



MET'MAP, your aeronautical weather chart ! - Copyright ORBIFLY December 2007 - Disclaimer

ORBIFLY MET'MAP TEAM :

Programming & Development : Alexandra Zaïnal
Concept & original design : Baudouin d'Aumeries
Assistance for programming : Marc-Olivier Méhu
Technical & hardware support : Manuel Goepfert

Contact : metmap@orbifly.com




SOURCES & CREDITS :

   NOAA       Earth
Advisory